Rosanna A — ILTL — position and weather

sailwx.info

Track history (hours):
 
Tides and Currents Weather Stations Pressure Air Temp Water Temp Dewpoint Dewpoint Depression Visibility Wind Speed Wind Dir Waves Ship Positions

Rosanna A

Last reported at 2018-Sep-13 08:02 UTC. Time now 2018-Sep-23 04:29 UTC.
Position N 41°15' E 013°37'.
Warning: this ship's position is 9 days out of date.

Length 63 m; draft 4.8 m.

Type: Ship. MMSI: 247508000.

Date/timePositionNaut miles runAvg speedWind from/ knotsBaromVisibWave heightAir tempDewpointWater temp
2018-Sep-13 08:02N 41°15' E 013°37'0 0.0
2018-Sep-13 07:59N 41°15' E 013°37'0 0.0
2018-Sep-13 07:11N 41°15' E 013°37'0 0.0
2018-Sep-13 06:17N 41°15' E 013°37'0 0.0
2018-Sep-13 05:08N 41°15' E 013°37'0 0.0
2018-Sep-13 04:59N 41°15' E 013°37'0 0.0
2018-Sep-13 04:26N 41°15' E 013°37'0 0.0
2018-Sep-13 03:17N 41°15' E 013°37'0 0.0
2018-Sep-13 03:02N 41°15' E 013°37'0 0.0
2018-Sep-13 02:59N 41°15' E 013°37'0 0.0
2018-Sep-12 22:35N 41°15' E 013°37'0 0.0
2018-Sep-12 22:02N 41°15' E 013°37'0 0.0
2018-Sep-12 21:56N 41°15' E 013°37'0 0.0
2018-Sep-12 21:20N 41°15' E 013°37'0 0.0
2018-Sep-12 21:02N 41°15' E 013°37'0 0.1
2018-Sep-12 20:59N 41°15' E 013°37'0 0.0
2018-Sep-12 19:56N 41°15' E 013°37'0 0.0
2018-Sep-12 19:14N 41°15' E 013°37'0 0.0
2018-Sep-12 19:02N 41°15' E 013°37'0 0.0
2018-Sep-12 18:56N 41°15' E 013°37'0 0.0
2018-Sep-12 18:29N 41°15' E 013°37'0 0.0
2018-Sep-12 17:59N 41°15' E 013°37'0 0.0
2018-Sep-12 15:56N 41°15' E 013°37'  
2018-Sep-04 23:09N 40°44' E 013°41'1 7.0
2018-Sep-04 23:02N 40°44' E 013°41'0 6.9
2018-Sep-04 22:59N 40°44' E 013°42'4 7.1
2018-Sep-04 22:27N 40°42' E 013°46'3 7.2
2018-Sep-04 22:03N 40°41' E 013°50'0 7.2
2018-Sep-04 22:00N 40°40' E 013°50'4 7.2
2018-Sep-04 21:28N 40°39' E 013°55'3 7.6
2018-Sep-04 21:03N 40°39' E 013°59'0 8.2
2018-Sep-04 21:00N 40°39' E 013°59'4 8.1
2018-Sep-04 20:30N 40°41' E 014°04'4 8.1
2018-Sep-04 20:03N 40°43' E 014°08'0 7.9
2018-Sep-04 20:00N 40°43' E 014°08'4 7.5
2018-Sep-04 19:30N 40°45' E 014°12'3 7.4
2018-Sep-04 19:03N 40°48' E 014°15'0 7.7
2018-Sep-04 19:00N 40°48' E 014°15'2 4.5
2018-Sep-04 18:29N 40°51' E 014°16'0 0.0
2018-Sep-04 18:02N 40°51' E 014°16'0 0.0
2018-Sep-04 17:59N 40°51' E 014°16'0 0.0
2018-Sep-04 17:29N 40°51' E 014°16'0 0.0
2018-Sep-04 17:02N 40°51' E 014°16'0 0.1
2018-Sep-04 16:59N 40°51' E 014°16'0 0.0
2018-Sep-04 16:29N 40°51' E 014°16'0 0.0
2018-Sep-04 16:02N 40°51' E 014°16'0 0.1
2018-Sep-04 15:59N 40°51' E 014°16'0 0.0
2018-Sep-04 15:17N 40°51' E 014°16'0 0.0
2018-Sep-04 15:02N 40°51' E 014°16'0 0.1
2018-Sep-04 14:59N 40°51' E 014°16'0 0.0
2018-Sep-04 14:29N 40°51' E 014°16'0 0.0
2018-Sep-04 13:56N 40°51' E 014°16'0 0.0
2018-Sep-04 13:29N 40°51' E 014°16'0 0.0
2018-Sep-04 13:02N 40°51' E 014°16'0 0.0
2018-Sep-04 12:59N 40°51' E 014°16'0 0.0
2018-Sep-04 12:29N 40°51' E 014°16'0 0.0
2018-Sep-04 11:59N 40°51' E 014°16'0 0.0
2018-Sep-04 11:29N 40°51' E 014°16'0 0.0
2018-Sep-04 11:02N 40°51' E 014°16'0 0.0
2018-Sep-04 10:59N 40°51' E 014°16'0 0.0
2018-Sep-04 10:29N 40°51' E 014°16'0 0.0
2018-Sep-04 10:02N 40°51' E 014°16'0 0.0
2018-Sep-04 09:59N 40°51' E 014°16'0 0.0
2018-Sep-04 09:29N 40°51' E 014°16'0 0.0
2018-Sep-04 09:02N 40°51' E 014°16'0 0.0
2018-Sep-04 08:56N 40°51' E 014°16'0 0.0
2018-Sep-04 08:23N 40°51' E 014°16'0 0.0
2018-Sep-04 08:02N 40°51' E 014°16'0 0.0
2018-Sep-04 07:59N 40°51' E 014°16'0 0.0
2018-Sep-04 07:26N 40°51' E 014°16'0 0.0
2018-Sep-04 07:02N 40°51' E 014°16'0 0.1
2018-Sep-04 06:59N 40°51' E 014°16'0 0.0
2018-Sep-04 06:29N 40°51' E 014°16'0 0.0
2018-Sep-04 06:02N 40°51' E 014°16'0 0.0
2018-Sep-04 05:56N 40°51' E 014°16'0 0.0
2018-Sep-04 05:29N 40°51' E 014°16'0 0.0
2018-Sep-04 04:56N 40°51' E 014°16'0 0.0
2018-Sep-04 04:26N 40°51' E 014°16'0 0.0
2018-Sep-04 04:02N 40°51' E 014°16'0 0.0
2018-Sep-04 03:59N 40°51' E 014°16'0 0.0
2018-Sep-04 03:29N 40°51' E 014°16'0 0.0
2018-Sep-04 03:02N 40°51' E 014°16'0 0.0
2018-Sep-04 02:53N 40°51' E 014°16'0 0.0
2018-Sep-04 02:29N 40°51' E 014°16'0 0.0
2018-Sep-04 02:02N 40°51' E 014°16'0 0.1
2018-Sep-04 01:59N 40°51' E 014°16'0 0.0
2018-Sep-04 01:26N 40°51' E 014°16'0 0.0
2018-Sep-04 01:02N 40°51' E 014°16'0 0.0
2018-Sep-04 00:59N 40°51' E 014°16'0 0.0
2018-Sep-04 00:29N 40°51' E 014°16'0 0.0
2018-Sep-03 23:59N 40°51' E 014°16'0 0.0
2018-Sep-03 23:26N 40°51' E 014°16'0 0.0
2018-Sep-03 23:02N 40°51' E 014°16'0 0.0
2018-Sep-03 22:59N 40°51' E 014°16'0 0.0
2018-Sep-03 22:29N 40°51' E 014°16'0 0.0
2018-Sep-03 22:02N 40°51' E 014°16'0 0.1
2018-Sep-03 21:59N 40°51' E 014°16'0 0.0
2018-Sep-03 21:29N 40°51' E 014°16'0 0.0
2018-Sep-03 21:03N 40°51' E 014°16'0 0.2
2018-Sep-03 21:00N 40°51' E 014°16'2 3.6
2018-Sep-03 20:30N 40°49' E 014°18'0 0.1
2018-Sep-03 20:03N 40°49' E 014°18'0 2.0
2018-Sep-03 20:00N 40°49' E 014°18'2 3.9
2018-Sep-03 19:30N 40°48' E 014°19'0 1.0
2018-Sep-03 19:03N 40°48' E 014°18'0 1.4
2018-Sep-03 19:00N 40°48' E 014°18'3 5.7
2018-Sep-03 18:30N 40°45' E 014°17'4 9.3
2018-Sep-03 18:03N 40°41' E 014°17'0 9.0
2018-Sep-03 18:00N 40°40' E 014°17'5 9.3
2018-Sep-03 17:30N 40°36' E 014°17'4 9.3
2018-Sep-03 17:03N 40°31' E 014°18'0 9.3
2018-Sep-03 17:00N 40°31' E 014°18'5 9.4
2018-Sep-03 16:30N 40°26' E 014°20'5 9.5
2018-Sep-03 15:59N 40°22' E 014°21'10 9.5
2018-Sep-03 14:58N 40°12' E 014°24'  
Track history (hours):
 
Tides and Currents Weather Stations Pressure Air Temp Water Temp Dewpoint Dewpoint Depression Visibility Wind Speed Wind Dir Waves Ship Positions

Rosanna A

Last reported at 2018-Sep-13 08:02 UTC. Time now 2018-Sep-23 04:29 UTC.
Position N 41°15' E 013°37'.
Warning: this ship's position is 9 days out of date.

Length 63 m; draft 4.8 m.

Type: Ship. MMSI: 247508000.

Date/timePositionNaut miles runAvg speedWind from/ knotsBaromVisibWave heightAir tempDewpointWater temp
2018-Sep-13 08:02N 41°15' E 013°37'0 0.0
2018-Sep-13 07:59N 41°15' E 013°37'0 0.0
2018-Sep-13 07:11N 41°15' E 013°37'0 0.0
2018-Sep-13 06:17N 41°15' E 013°37'0 0.0
2018-Sep-13 05:08N 41°15' E 013°37'0 0.0
2018-Sep-13 04:59N 41°15' E 013°37'0 0.0
2018-Sep-13 04:26N 41°15' E 013°37'0 0.0
2018-Sep-13 03:17N 41°15' E 013°37'0 0.0
2018-Sep-13 03:02N 41°15' E 013°37'0 0.0
2018-Sep-13 02:59N 41°15' E 013°37'0 0.0
2018-Sep-12 22:35N 41°15' E 013°37'0 0.0
2018-Sep-12 22:02N 41°15' E 013°37'0 0.0
2018-Sep-12 21:56N 41°15' E 013°37'0 0.0
2018-Sep-12 21:20N 41°15' E 013°37'0 0.0
2018-Sep-12 21:02N 41°15' E 013°37'0 0.1
2018-Sep-12 20:59N 41°15' E 013°37'0 0.0
2018-Sep-12 19:56N 41°15' E 013°37'0 0.0
2018-Sep-12 19:14N 41°15' E 013°37'0 0.0
2018-Sep-12 19:02N 41°15' E 013°37'0 0.0
2018-Sep-12 18:56N 41°15' E 013°37'0 0.0
2018-Sep-12 18:29N 41°15' E 013°37'0 0.0
2018-Sep-12 17:59N 41°15' E 013°37'0 0.0
2018-Sep-12 15:56N 41°15' E 013°37'  
2018-Sep-04 23:09N 40°44' E 013°41'1 7.0
2018-Sep-04 23:02N 40°44' E 013°41'0 6.9
2018-Sep-04 22:59N 40°44' E 013°42'4 7.1
2018-Sep-04 22:27N 40°42' E 013°46'3 7.2
2018-Sep-04 22:03N 40°41' E 013°50'0 7.2
2018-Sep-04 22:00N 40°40' E 013°50'4 7.2
2018-Sep-04 21:28N 40°39' E 013°55'3 7.6
2018-Sep-04 21:03N 40°39' E 013°59'0 8.2
2018-Sep-04 21:00N 40°39' E 013°59'4 8.1
2018-Sep-04 20:30N 40°41' E 014°04'4 8.1
2018-Sep-04 20:03N 40°43' E 014°08'0 7.9
2018-Sep-04 20:00N 40°43' E 014°08'4 7.5
2018-Sep-04 19:30N 40°45' E 014°12'3 7.4
2018-Sep-04 19:03N 40°48' E 014°15'0 7.7
2018-Sep-04 19:00N 40°48' E 014°15'2 4.5
2018-Sep-04 18:29N 40°51' E 014°16'0 0.0
2018-Sep-04 18:02N 40°51' E 014°16'0 0.0
2018-Sep-04 17:59N 40°51' E 014°16'0 0.0
2018-Sep-04 17:29N 40°51' E 014°16'0 0.0
2018-Sep-04 17:02N 40°51' E 014°16'0 0.1
2018-Sep-04 16:59N 40°51' E 014°16'0 0.0
2018-Sep-04 16:29N 40°51' E 014°16'0 0.0
2018-Sep-04 16:02N 40°51' E 014°16'0 0.1
2018-Sep-04 15:59N 40°51' E 014°16'0 0.0
2018-Sep-04 15:17N 40°51' E 014°16'0 0.0
2018-Sep-04 15:02N 40°51' E 014°16'0 0.1
2018-Sep-04 14:59N 40°51' E 014°16'0 0.0
2018-Sep-04 14:29N 40°51' E 014°16'0 0.0
2018-Sep-04 13:56N 40°51' E 014°16'0 0.0
2018-Sep-04 13:29N 40°51' E 014°16'0 0.0
2018-Sep-04 13:02N 40°51' E 014°16'0 0.0
2018-Sep-04 12:59N 40°51' E 014°16'0 0.0
2018-Sep-04 12:29N 40°51' E 014°16'0 0.0
2018-Sep-04 11:59N 40°51' E 014°16'0 0.0
2018-Sep-04 11:29N 40°51' E 014°16'0 0.0
2018-Sep-04 11:02N 40°51' E 014°16'0 0.0
2018-Sep-04 10:59N 40°51' E 014°16'0 0.0
2018-Sep-04 10:29N 40°51' E 014°16'0 0.0
2018-Sep-04 10:02N 40°51' E 014°16'0 0.0
2018-Sep-04 09:59N 40°51' E 014°16'0 0.0
2018-Sep-04 09:29N 40°51' E 014°16'0 0.0
2018-Sep-04 09:02N 40°51' E 014°16'0 0.0
2018-Sep-04 08:56N 40°51' E 014°16'0 0.0
2018-Sep-04 08:23N 40°51' E 014°16'0 0.0
2018-Sep-04 08:02N 40°51' E 014°16'0 0.0
2018-Sep-04 07:59N 40°51' E 014°16'0 0.0
2018-Sep-04 07:26N 40°51' E 014°16'0 0.0
2018-Sep-04 07:02N 40°51' E 014°16'0 0.1
2018-Sep-04 06:59N 40°51' E 014°16'0 0.0
2018-Sep-04 06:29N 40°51' E 014°16'0 0.0
2018-Sep-04 06:02N 40°51' E 014°16'0 0.0
2018-Sep-04 05:56N 40°51' E 014°16'0 0.0
2018-Sep-04 05:29N 40°51' E 014°16'0 0.0
2018-Sep-04 04:56N 40°51' E 014°16'0 0.0
2018-Sep-04 04:26N 40°51' E 014°16'0 0.0
2018-Sep-04 04:02N 40°51' E 014°16'0 0.0
2018-Sep-04 03:59N 40°51' E 014°16'0 0.0
2018-Sep-04 03:29N 40°51' E 014°16'0 0.0
2018-Sep-04 03:02N 40°51' E 014°16'0 0.0
2018-Sep-04 02:53N 40°51' E 014°16'0 0.0
2018-Sep-04 02:29N 40°51' E 014°16'0 0.0
2018-Sep-04 02:02N 40°51' E 014°16'0 0.1
2018-Sep-04 01:59N 40°51' E 014°16'0 0.0
2018-Sep-04 01:26N 40°51' E 014°16'0 0.0
2018-Sep-04 01:02N 40°51' E 014°16'0 0.0
2018-Sep-04 00:59N 40°51' E 014°16'0 0.0
2018-Sep-04 00:29N 40°51' E 014°16'0 0.0
2018-Sep-03 23:59N 40°51' E 014°16'0 0.0
2018-Sep-03 23:26N 40°51' E 014°16'0 0.0
2018-Sep-03 23:02N 40°51' E 014°16'0 0.0
2018-Sep-03 22:59N 40°51' E 014°16'0 0.0
2018-Sep-03 22:29N 40°51' E 014°16'0 0.0
2018-Sep-03 22:02N 40°51' E 014°16'0 0.1
2018-Sep-03 21:59N 40°51' E 014°16'0 0.0
2018-Sep-03 21:29N 40°51' E 014°16'0 0.0
2018-Sep-03 21:03N 40°51' E 014°16'0 0.2
2018-Sep-03 21:00N 40°51' E 014°16'2 3.6
2018-Sep-03 20:30N 40°49' E 014°18'0 0.1
2018-Sep-03 20:03N 40°49' E 014°18'0 2.0
2018-Sep-03 20:00N 40°49' E 014°18'2 3.9
2018-Sep-03 19:30N 40°48' E 014°19'0 1.0
2018-Sep-03 19:03N 40°48' E 014°18'0 1.4
2018-Sep-03 19:00N 40°48' E 014°18'3 5.7
2018-Sep-03 18:30N 40°45' E 014°17'4 9.3
2018-Sep-03 18:03N 40°41' E 014°17'0 9.0
2018-Sep-03 18:00N 40°40' E 014°17'5 9.3
2018-Sep-03 17:30N 40°36' E 014°17'4 9.3
2018-Sep-03 17:03N 40°31' E 014°18'0 9.3
2018-Sep-03 17:00N 40°31' E 014°18'5 9.4
2018-Sep-03 16:30N 40°26' E 014°20'5 9.5
2018-Sep-03 15:59N 40°22' E 014°21'10 9.5
2018-Sep-03 14:58N 40°12' E 014°24'  

Dump ship's entire track history